Time,TemperatureF,DewpointF,PressureIn,WindDirection,WindDirectionDegrees,WindSpeedMPH,WindSpeedGustMPH,Humidity,HourlyPrecipIn,Conditions,Clouds,dailyrainin,SolarRadiationWatts/m^2,SoftwareType,DateUTC
2013-03-25 00:22:00,39.0,39.0,-100.00,NNW,327,4.0,14.0,99,0.00,,,0.09,0.000000,,2013-03-25 08:22:00,
2013-03-25 00:32:00,39.0,39.0,-100.00,NNW,327,4.0,14.0,99,0.00,,,0.09,0.000000,,2013-03-25 08:32:00,
2013-03-25 00:42:00,39.0,39.0,-100.00,NNW,327,4.0,14.0,99,0.00,,,0.09,0.000000,,2013-03-25 08:42:00,
2013-03-25 00:52:00,39.0,39.0,-100.00,NNW,327,4.0,14.0,99,0.00,,,0.09,0.000000,,2013-03-25 08:52:00,
2013-03-25 01:22:00,40.0,39.0,-100.00,NNW,329,6.0,16.0,95,0.00,,,0.09,0.000000,,2013-03-25 09:22:00,
2013-03-25 01:32:00,40.0,39.0,-100.00,NNW,329,6.0,16.0,95,0.00,,,0.09,0.000000,,2013-03-25 09:32:00,
2013-03-25 01:42:00,40.0,39.0,-100.00,NNW,329,6.0,16.0,95,0.00,,,0.09,0.000000,,2013-03-25 09:42:00,
2013-03-25 01:52:00,40.0,39.0,-100.00,NNW,329,6.0,16.0,95,0.00,,,0.09,0.000000,,2013-03-25 09:52:00,
2013-03-25 02:22:00,41.0,39.0,-100.00,NW,312,12.0,22.0,93,0.00,,,0.09,0.000000,,2013-03-25 10:22:00,
2013-03-25 02:32:00,41.0,39.0,-100.00,NW,312,12.0,22.0,93,0.00,,,0.09,0.000000,,2013-03-25 10:32:00,
2013-03-25 02:42:00,41.0,39.0,-100.00,NW,312,12.0,22.0,93,0.00,,,0.09,0.000000,,2013-03-25 10:42:00,
2013-03-25 02:52:00,41.0,39.0,-100.00,NW,312,12.0,22.0,93,0.00,,,0.09,0.000000,,2013-03-25 10:52:00,
2013-03-25 03:23:00,41.0,38.0,-100.00,NNW,338,11.0,25.0,89,0.00,,,0.09,0.000000,,2013-03-25 11:23:00,
2013-03-25 03:32:00,41.0,38.0,-100.00,NNW,338,11.0,25.0,89,0.00,,,0.09,0.000000,,2013-03-25 11:32:00,
2013-03-25 03:42:00,41.0,38.0,-100.00,NNW,338,11.0,25.0,89,0.00,,,0.09,0.000000,,2013-03-25 11:42:00,
2013-03-25 03:52:00,41.0,38.0,-100.00,NNW,338,11.0,25.0,89,0.00,,,0.09,0.000000,,2013-03-25 11:52:00,
2013-03-25 04:23:00,40.0,38.0,-100.00,NNW,339,9.0,21.0,91,0.00,,,0.09,0.000000,,2013-03-25 12:23:00,
2013-03-25 04:32:00,40.0,38.0,-100.00,NNW,339,9.0,21.0,91,0.00,,,0.09,0.000000,,2013-03-25 12:32:00,
2013-03-25 04:42:00,40.0,38.0,-100.00,NNW,339,9.0,21.0,91,0.00,,,0.09,0.000000,,2013-03-25 12:42:00,
2013-03-25 04:52:00,40.0,38.0,-100.00,NNW,339,9.0,21.0,91,0.00,,,0.09,0.000000,,2013-03-25 12:52:00,
2013-03-25 05:22:00,40.0,38.0,-100.00,NNW,333,6.0,19.0,93,0.00,,,0.09,0.000000,,2013-03-25 13:22:00,
2013-03-25 05:32:00,40.0,38.0,-100.00,NNW,333,6.0,19.0,93,0.00,,,0.09,0.000000,,2013-03-25 13:32:00,
2013-03-25 05:42:00,40.0,38.0,-100.00,NNW,333,6.0,19.0,93,0.00,,,0.09,0.000000,,2013-03-25 13:42:00,
2013-03-25 05:52:00,40.0,38.0,-100.00,NNW,333,6.0,19.0,93,0.00,,,0.09,0.000000,,2013-03-25 13:52:00,
2013-03-25 06:22:00,40.0,38.0,-100.00,NW,311,8.0,19.0,93,0.00,,,0.09,0.000000,,2013-03-25 14:22:00,
2013-03-25 06:32:00,40.0,38.0,-100.00,NW,311,8.0,19.0,93,0.00,,,0.09,0.000000,,2013-03-25 14:32:00,
2013-03-25 06:42:00,40.0,38.0,-100.00,NW,311,8.0,19.0,93,0.00,,,0.09,0.000000,,2013-03-25 14:42:00,
2013-03-25 06:52:00,40.0,38.0,-100.00,NW,311,8.0,19.0,93,0.00,,,0.09,0.000000,,2013-03-25 14:52:00,
2013-03-25 07:22:00,39.0,37.0,-100.00,North,351,6.0,20.0,94,0.00,,,0.09,0.000000,,2013-03-25 15:22:00,
2013-03-25 07:32:00,39.0,37.0,-100.00,North,351,6.0,20.0,94,0.00,,,0.09,0.000000,,2013-03-25 15:32:00,
2013-03-25 07:42:00,39.0,37.0,-100.00,North,351,6.0,20.0,94,0.00,,,0.09,0.000000,,2013-03-25 15:42:00,
2013-03-25 07:52:00,39.0,37.0,-100.00,North,351,6.0,20.0,94,0.00,,,0.09,0.000000,,2013-03-25 15:52:00,
2013-03-25 08:23:00,39.0,38.0,-100.00,NNW,333,5.0,14.0,98,0.01,,,0.10,11.000000,,2013-03-25 16:23:00,
2013-03-25 08:32:00,39.0,38.0,-100.00,NNW,333,5.0,14.0,98,0.01,,,0.10,11.000000,,2013-03-25 16:32:00,
2013-03-25 08:42:00,39.0,38.0,-100.00,NNW,333,5.0,14.0,98,0.01,,,0.10,11.000000,,2013-03-25 16:42:00,
2013-03-25 08:52:00,39.0,38.0,-100.00,NNW,333,5.0,14.0,98,0.01,,,0.10,11.000000,,2013-03-25 16:52:00,
2013-03-25 09:23:00,39.0,38.0,-100.00,North,349,7.0,15.0,98,0.01,,,0.11,29.000000,,2013-03-25 17:23:00,
2013-03-25 09:32:00,39.0,38.0,-100.00,North,349,7.0,15.0,98,0.01,,,0.11,29.000000,,2013-03-25 17:32:00,
2013-03-25 09:42:00,39.0,38.0,-100.00,North,349,7.0,15.0,98,0.01,,,0.11,29.000000,,2013-03-25 17:42:00,
2013-03-25 09:52:00,39.0,38.0,-100.00,North,349,7.0,15.0,98,0.01,,,0.11,29.000000,,2013-03-25 17:52:00,
2013-03-25 10:22:00,39.0,39.0,-100.00,NNW,335,11.0,22.0,100,0.02,,,0.13,53.000000,,2013-03-25 18:22:00,
2013-03-25 10:32:00,39.0,39.0,-100.00,NNW,335,11.0,22.0,100,0.02,,,0.13,53.000000,,2013-03-25 18:32:00,
2013-03-25 10:42:00,39.0,39.0,-100.00,NNW,335,11.0,22.0,100,0.02,,,0.13,53.000000,,2013-03-25 18:42:00,
2013-03-25 10:51:00,39.0,39.0,-100.00,NNW,335,11.0,22.0,100,0.02,,,0.13,53.000000,,2013-03-25 18:51:00,
2013-03-25 11:22:00,39.0,39.0,-100.00,NNW,332,13.0,25.0,100,0.01,,,0.14,66.000000,,2013-03-25 19:22:00,
2013-03-25 11:32:00,39.0,39.0,-100.00,NNW,332,13.0,25.0,100,0.01,,,0.14,66.000000,,2013-03-25 19:32:00,
2013-03-25 11:42:00,39.0,39.0,-100.00,NNW,332,13.0,25.0,100,0.01,,,0.14,66.000000,,2013-03-25 19:42:00,
2013-03-25 11:52:00,39.0,39.0,-100.00,NNW,332,13.0,25.0,100,0.01,,,0.14,66.000000,,2013-03-25 19:52:00,
2013-03-25 12:22:00,39.0,39.0,-100.00,NNW,327,11.0,24.0,100,0.01,,,0.15,99.000000,,2013-03-25 20:22:00,
2013-03-25 12:32:00,39.0,39.0,-100.00,NNW,327,11.0,24.0,100,0.01,,,0.15,99.000000,,2013-03-25 20:32:00,
2013-03-25 12:42:00,39.0,39.0,-100.00,NNW,327,11.0,24.0,100,0.01,,,0.15,99.000000,,2013-03-25 20:42:00,
2013-03-25 12:52:00,39.0,39.0,-100.00,NNW,327,11.0,24.0,100,0.01,,,0.15,99.000000,,2013-03-25 20:52:00,
2013-03-25 13:22:00,38.0,38.0,-100.00,NNE,12,14.0,23.0,100,0.05,,,0.20,109.000000,,2013-03-25 21:22:00,
2013-03-25 13:33:00,38.0,38.0,-100.00,NNE,12,14.0,23.0,100,0.05,,,0.20,109.000000,,2013-03-25 21:33:00,
2013-03-25 13:42:00,38.0,38.0,-100.00,NNE,12,14.0,23.0,100,0.05,,,0.20,109.000000,,2013-03-25 21:42:00,
2013-03-25 13:52:00,38.0,38.0,-100.00,NNE,12,14.0,23.0,100,0.05,,,0.20,109.000000,,2013-03-25 21:52:00,
2013-03-25 14:23:00,39.0,39.0,-100.00,North,351,9.0,17.0,100,0.04,,,0.24,133.000000,,2013-03-25 22:23:00,
2013-03-25 14:32:00,39.0,39.0,-100.00,North,351,9.0,17.0,100,0.04,,,0.24,133.000000,,2013-03-25 22:32:00,
2013-03-25 14:42:00,39.0,39.0,-100.00,North,351,9.0,17.0,100,0.04,,,0.24,133.000000,,2013-03-25 22:42:00,
2013-03-25 14:52:00,39.0,39.0,-100.00,North,351,9.0,17.0,100,0.04,,,0.24,133.000000,,2013-03-25 22:52:00,
2013-03-25 15:22:00,38.0,38.0,-100.00,NE,44,9.0,15.0,100,0.06,,,0.30,91.000000,,2013-03-25 23:22:00,
2013-03-25 15:32:00,38.0,38.0,-100.00,NE,44,9.0,15.0,100,0.06,,,0.30,91.000000,,2013-03-25 23:32:00,
2013-03-25 15:42:00,38.0,38.0,-100.00,NE,44,9.0,15.0,100,0.06,,,0.30,91.000000,,2013-03-25 23:42:00,
2013-03-25 15:52:00,38.0,38.0,-100.00,NE,44,9.0,15.0,100,0.06,,,0.30,91.000000,,2013-03-25 23:52:00,
2013-03-25 16:22:00,37.0,37.0,-100.00,NE,41,7.0,13.0,100,0.00,,,0.30,128.000000,,2013-03-26 00:22:00,
2013-03-25 16:32:00,37.0,37.0,-100.00,NE,41,7.0,13.0,100,0.00,,,0.30,128.000000,,2013-03-26 00:32:00,
2013-03-25 16:42:00,37.0,37.0,-100.00,NE,41,7.0,13.0,100,0.00,,,0.30,128.000000,,2013-03-26 00:42:00,
2013-03-25 16:52:00,37.0,37.0,-100.00,NE,41,7.0,13.0,100,0.00,,,0.30,128.000000,,2013-03-26 00:52:00,
2013-03-25 17:22:00,37.0,37.0,-100.00,NE,38,7.0,13.0,100,0.00,,,0.30,101.000000,,2013-03-26 01:22:00,
2013-03-25 17:32:00,37.0,37.0,-100.00,NE,38,7.0,13.0,100,0.00,,,0.30,101.000000,,2013-03-26 01:32:00,
2013-03-25 17:42:00,37.0,37.0,-100.00,NE,38,7.0,13.0,100,0.00,,,0.30,101.000000,,2013-03-26 01:42:00,
2013-03-25 17:52:00,37.0,37.0,-100.00,NE,38,7.0,13.0,100,0.00,,,0.30,101.000000,,2013-03-26 01:52:00,
2013-03-25 18:22:00,38.0,38.0,-100.00,NNE,27,6.0,11.0,100,0.00,,,0.30,140.000000,,2013-03-26 02:22:00,
2013-03-25 18:32:00,38.0,38.0,-100.00,NNE,27,6.0,11.0,100,0.00,,,0.30,140.000000,,2013-03-26 02:32:00,
2013-03-25 18:42:00,38.0,38.0,-100.00,NNE,27,6.0,11.0,100,0.00,,,0.30,140.000000,,2013-03-26 02:42:00,
2013-03-25 18:52:00,38.0,38.0,-100.00,NNE,27,6.0,11.0,100,0.00,,,0.30,140.000000,,2013-03-26 02:52:00,
2013-03-25 19:22:00,35.0,34.0,-100.00,NE,34,6.0,13.0,96,0.00,,,0.28,59.000000,,2013-03-26 03:22:00,
2013-03-25 19:33:00,35.0,34.0,-100.00,NE,34,6.0,13.0,96,0.00,,,0.28,59.000000,,2013-03-26 03:33:00,
2013-03-25 19:42:00,35.0,34.0,-100.00,NE,34,6.0,13.0,96,0.00,,,0.28,59.000000,,2013-03-26 03:42:00,
2013-03-25 19:52:00,35.0,34.0,-100.00,NE,34,6.0,13.0,96,0.00,,,0.28,59.000000,,2013-03-26 03:52:00,
2013-03-25 20:23:00,35.0,35.0,-100.00,NNW,344,2.0,9.0,100,0.00,,,0.26,4.000000,,2013-03-26 04:23:00,
2013-03-25 20:32:00,35.0,35.0,-100.00,NNW,344,2.0,9.0,100,0.00,,,0.26,4.000000,,2013-03-26 04:32:00,
2013-03-25 20:43:00,35.0,35.0,-100.00,NNW,344,2.0,9.0,100,0.00,,,0.26,4.000000,,2013-03-26 04:43:00,
2013-03-25 20:52:00,35.0,35.0,-100.00,NNW,344,2.0,9.0,100,0.00,,,0.26,4.000000,,2013-03-26 04:52:00,
2013-03-25 21:22:00,35.0,35.0,-100.00,North,10,3.0,6.0,100,0.00,,,0.26,0.000000,,2013-03-26 05:22:00,
2013-03-25 21:32:00,35.0,35.0,-100.00,North,10,3.0,6.0,100,0.00,,,0.26,0.000000,,2013-03-26 05:32:00,
2013-03-25 21:42:00,35.0,35.0,-100.00,North,10,3.0,6.0,100,0.00,,,0.26,0.000000,,2013-03-26 05:42:00,
2013-03-25 21:52:00,35.0,35.0,-100.00,North,10,3.0,6.0,100,0.00,,,0.26,0.000000,,2013-03-26 05:52:00,
2013-03-25 22:22:00,33.0,33.0,-100.00,NE,34,2.0,9.0,100,0.00,,,0.25,0.000000,,2013-03-26 06:22:00,
2013-03-25 22:32:00,33.0,33.0,-100.00,NE,34,2.0,9.0,100,0.00,,,0.25,0.000000,,2013-03-26 06:32:00,
2013-03-25 22:42:00,33.0,33.0,-100.00,NE,34,2.0,9.0,100,0.00,,,0.25,0.000000,,2013-03-26 06:42:00,
2013-03-25 22:52:00,33.0,33.0,-100.00,NE,34,2.0,9.0,100,0.00,,,0.25,0.000000,,2013-03-26 06:52:00,
2013-03-25 23:22:00,34.0,34.0,-100.00,North,6,4.0,7.0,100,0.00,,,0.21,0.000000,,2013-03-26 07:22:00,
2013-03-25 23:32:00,34.0,34.0,-100.00,North,6,4.0,7.0,100,0.00,,,0.21,0.000000,,2013-03-26 07:32:00,
2013-03-25 23:42:00,34.0,34.0,-100.00,North,6,4.0,7.0,100,0.00,,,0.21,0.000000,,2013-03-26 07:42:00,
2013-03-25 23:52:00,34.0,34.0,-100.00,North,6,4.0,7.0,100,0.00,,,0.21,0.000000,,2013-03-26 07:52:00,